Time;durP1;ratioP1;P1;durP2;ratioP2;P2;SDS_P1;SDS_P2;PMS_P1;PMS_P2;Temp;Humidity;BMP_temperature;BMP_pressure;BME280_temperature;BME280_humidity;BME280_pressure;Samples;Min_cycle;Max_cycle;Signal;HPM_P1;HPM_P2
2022/12/26 00:00:38;;;;;;;37.50;15.60;;;;;;;6.31;100.00;100154.21;103017;1306;25470;-59
2022/12/26 00:03:30;;;;;;;31.10;13.10;;;;;;;6.31;100.00;100164.62;103076;1282;24402;-60
2022/12/26 00:06:01;;;;;;;37.40;14.00;;;;;;;6.33;100.00;100165.28;103121;1306;22464;-56
2022/12/26 00:08:33;;;;;;;34.80;13.90;;;;;;;6.33;100.00;100159.83;102987;1274;22467;-58
2022/12/26 00:11:04;;;;;;;30.20;12.80;;;;;;;6.32;100.00;100168.33;102949;1281;23322;-57
2022/12/26 00:13:35;;;;;;;37.90;13.40;;;;;;;6.34;100.00;100161.63;102971;1282;25301;-55
2022/12/26 00:16:10;;;;;;;37.60;15.80;;;;;;;6.34;100.00;100154.48;102909;1306;25268;-58
2022/12/26 00:18:42;;;;;;;34.60;13.60;;;;;;;6.34;100.00;100153.29;102960;1296;22466;-57
2022/12/26 00:21:15;;;;;;;31.70;11.80;;;;;;;6.34;100.00;100149.71;102893;1274;25360;-57
2022/12/26 00:23:47;;;;;;;35.80;13.80;;;;;;;6.35;100.00;100137.55;102991;1291;22477;-56
2022/12/26 00:26:22;;;;;;;36.80;14.10;;;;;;;6.36;100.00;100134.44;102980;1282;24260;-59
2022/12/26 00:28:56;;;;;;;34.10;13.50;;;;;;;6.36;100.00;100115.92;102917;1282;22660;-61
2022/12/26 00:31:30;;;;;;;32.80;12.50;;;;;;;6.35;100.00;100107.44;103074;1294;25710;-58
2022/12/26 00:34:04;;;;;;;33.60;14.20;;;;;;;6.36;100.00;100118.15;102968;1297;24398;-59
2022/12/26 00:36:36;;;;;;;34.00;14.30;;;;;;;6.34;100.00;100114.23;102900;1282;22477;-57
2022/12/26 00:39:07;;;;;;;34.20;13.50;;;;;;;6.34;100.00;100113.45;103029;1281;22558;-56
2022/12/26 00:41:39;;;;;;;33.40;12.90;;;;;;;6.35;100.00;100113.88;102898;1291;24311;-60
2022/12/26 00:44:10;;;;;;;34.00;13.70;;;;;;;6.34;100.00;100113.52;102886;1306;22581;-59
2022/12/26 00:46:42;;;;;;;33.20;14.40;;;;;;;6.34;100.00;100101.71;102984;1274;22465;-58
2022/12/26 00:49:13;;;;;;;31.70;13.50;;;;;;;6.34;100.00;100095.86;102880;1305;22470;-59
2022/12/26 00:51:44;;;;;;;34.70;12.70;;;;;;;6.34;100.00;100087.53;102945;1293;22580;-56
2022/12/26 00:54:16;;;;;;;31.50;12.50;;;;;;;6.35;100.00;100092.34;102886;1306;25580;-58
2022/12/26 00:56:47;;;;;;;36.90;13.50;;;;;;;6.33;100.00;100089.23;103083;1306;25335;-56
2022/12/26 00:59:19;;;;;;;35.60;13.70;;;;;;;6.32;100.00;100085.87;102934;1282;24372;-59
2022/12/26 01:01:50;;;;;;;32.90;13.20;;;;;;;6.32;100.00;100084.05;102955;1274;22462;-57
2022/12/26 01:04:21;;;;;;;32.20;12.10;;;;;;;6.31;100.00;100091.84;102993;1282;22461;-58
2022/12/26 01:06:54;;;;;;;29.90;12.60;;;;;;;6.31;100.00;100091.77;102986;1282;22565;-58
2022/12/26 01:09:25;;;;;;;35.00;14.40;;;;;;;6.31;100.00;100095.55;102891;1274;24336;-59
2022/12/26 01:11:56;;;;;;;30.10;12.90;;;;;;;6.31;100.00;100088.75;103060;1274;22497;-59
2022/12/26 01:14:27;;;;;;;33.30;12.50;;;;;;;6.32;100.00;100100.53;103127;1281;22477;-59
2022/12/26 01:16:59;;;;;;;28.10;12.30;;;;;;;6.33;100.00;100111.82;103008;1274;25329;-58
2022/12/26 01:19:30;;;;;;;31.70;13.10;;;;;;;6.35;100.00;100119.04;102964;1274;25507;-58
2022/12/26 01:22:02;;;;;;;34.10;12.60;;;;;;;6.37;100.00;100117.62;103019;1306;25414;-57
2022/12/26 01:24:33;;;;;;;29.60;12.50;;;;;;;6.39;100.00;100110.23;103001;1284;24452;-58
2022/12/26 01:27:05;;;;;;;28.00;11.90;;;;;;;6.41;100.00;100108.55;103010;1291;22487;-58
2022/12/26 01:29:36;;;;;;;31.60;11.20;;;;;;;6.45;100.00;100111.91;102930;1282;22502;-59
2022/12/26 01:32:08;;;;;;;33.00;12.20;;;;;;;6.47;100.00;100107.02;103002;1306;25326;-56
2022/12/26 01:34:39;;;;;;;33.50;11.00;;;;;;;6.49;100.00;100093.48;102963;1282;22492;-58
2022/12/26 01:37:14;;;;;;;29.20;11.40;;;;;;;6.49;100.00;100080.45;102861;1284;25672;-58
2022/12/26 01:39:46;;;;;;;29.00;12.10;;;;;;;6.50;100.00;100072.83;102865;1306;22467;-57
2022/12/26 01:42:19;;;;;;;33.30;12.80;;;;;;;6.50;100.00;100059.51;102956;1306;25506;-57
2022/12/26 01:45:03;;;;;;;31.90;13.00;;;;;;;6.49;100.00;100068.52;102912;1282;22473;-55
2022/12/26 01:47:43;;;;;;;37.80;13.10;;;;;;;6.48;100.00;100075.67;102878;1306;22464;-58
2022/12/26 01:50:31;;;;;;;31.70;11.30;;;;;;;6.44;100.00;100083.40;102896;1282;22487;-58
2022/12/26 01:53:10;;;;;;;35.20;12.30;;;;;;;6.43;100.00;100085.21;102884;1274;22469;-58
2022/12/26 01:55:50;;;;;;;31.20;12.70;;;;;;;6.43;100.00;100087.27;103038;1306;22503;-55
2022/12/26 01:58:27;;;;;;;33.00;11.30;;;;;;;6.43;100.00;100093.13;102926;1306;25285;-57
2022/12/26 02:00:59;;;;;;;31.10;12.10;;;;;;;6.43;100.00;100091.31;103042;1306;22494;-58
2022/12/26 02:06:31;;;;;;;34.70;12.70;;;;;;;6.40;100.00;100074.78;102813;1310;22487;-60
2022/12/26 02:09:04;;;;;;;32.50;12.60;;;;;;;6.38;100.00;100072.00;102730;1284;23238;-58
2022/12/26 02:11:38;;;;;;;34.90;12.80;;;;;;;6.37;100.00;100086.02;102735;1286;25373;-57
2022/12/26 02:14:12;;;;;;;33.40;13.70;;;;;;;6.36;100.00;100087.38;102725;1303;22612;-59
2022/12/26 02:16:45;;;;;;;40.30;13.40;;;;;;;6.36;100.00;100081.67;102843;1281;22650;-57
2022/12/26 02:19:25;;;;;;;36.90;13.20;;;;;;;6.38;100.00;100072.48;102750;1310;22781;-56
2022/12/26 02:22:26;;;;;;;42.40;15.50;;;;;;;6.40;100.00;100070.27;102857;1288;22545;-59
2022/12/26 02:25:24;;;;;;;38.00;16.10;;;;;;;6.42;100.00;100079.31;102812;1286;23193;-57
2022/12/26 02:28:27;;;;;;;35.20;14.20;;;;;;;6.43;100.00;100073.30;102647;1287;25340;-57
2022/12/26 02:31:08;;;;;;;28.80;13.10;;;;;;;6.45;100.00;100059.78;102896;1288;23220;-56
2022/12/26 02:33:53;;;;;;;35.80;12.90;;;;;;;6.46;100.00;100044.61;102793;1310;22471;-57
2022/12/26 02:36:56;;;;;;;26.30;12.00;;;;;;;6.47;100.00;100049.09;102774;1281;22564;-58
2022/12/26 02:39:51;;;;;;;26.10;10.90;;;;;;;6.45;100.00;100054.79;103009;1285;22481;-58
2022/12/26 02:42:35;;;;;;;25.10;10.30;;;;;;;6.44;100.00;100044.30;102738;1284;22479;-57
2022/12/26 02:48:13;;;;;;;24.70;9.50;;;;;;;6.43;100.00;100031.76;101796;1275;1457606;-55
2022/12/26 03:14:19;;;;;;;26.60;10.20;;;;;;;6.35;100.00;100029.50;102848;1282;22473;-56
2022/12/26 03:20:00;;;;;;;26.20;9.30;;;;;;;6.38;100.00;100029.70;102826;1306;24346;-58
2022/12/26 03:22:39;;;;;;;24.20;9.80;;;;;;;6.40;100.00;100016.09;102925;1288;22588;-60
2022/12/26 03:28:04;;;;;;;20.90;8.00;;;;;;;6.45;100.00;100004.71;102918;1299;24346;-58
2022/12/26 03:30:50;;;;;;;25.30;9.40;;;;;;;6.48;100.00;99987.96;102980;1306;22470;-59
2022/12/26 03:36:27;;;;;;;26.90;10.40;;;;;;;6.52;100.00;99997.77;102882;1274;22507;-57
2022/12/26 03:39:07;;;;;;;27.10;9.70;;;;;;;6.53;100.00;99997.65;102992;1305;22509;-56
2022/12/26 04:19:53;;;;;;;17.40;7.30;;;;;;;6.85;100.00;99974.56;102529;1282;24416;-56
2022/12/26 04:45:34;;;;;;;23.60;8.50;;;;;;;7.35;100.00;99974.83;102844;1306;22478;-58
2022/12/26 04:50:55;;;;;;;19.60;7.60;;;;;;;7.42;100.00;99968.84;102880;1274;22485;-58
2022/12/26 04:53:26;;;;;;;18.20;7.60;;;;;;;7.45;100.00;99974.12;102945;1274;24330;-58
2022/12/26 04:55:58;;;;;;;17.80;6.80;;;;;;;7.47;100.00;99970.30;102890;1274;22488;-58
2022/12/26 04:58:29;;;;;;;21.10;7.90;;;;;;;7.50;100.00;99972.66;102888;1282;22467;-60
2022/12/26 05:09:38;;;;;;;17.40;6.50;;;;;;;7.60;100.00;99965.14;102843;1306;22463;-55
2022/12/26 05:12:10;;;;;;;17.90;5.80;;;;;;;7.61;100.00;99963.36;102915;1291;25273;-57
2022/12/26 05:14:41;;;;;;;18.90;6.00;;;;;;;7.63;100.00;99961.53;102977;1282;25304;-59
2022/12/26 05:28:43;;;;;;;30.20;10.50;;;;;;;7.68;100.00;99943.03;102847;1306;23239;-56
2022/12/26 05:31:17;;;;;;;21.40;9.30;;;;;;;7.68;100.00;99942.47;102985;1306;22601;-56
2022/12/26 05:34:06;;;;;;;20.50;8.50;;;;;;;7.67;100.00;99940.84;103057;1304;22478;-58
2022/12/26 05:36:42;;;;;;;19.20;6.70;;;;;;;7.68;100.00;99944.14;102949;1283;24295;-59
2022/12/26 05:39:13;;;;;;;22.60;8.10;;;;;;;7.69;100.00;99950.14;103115;1280;24259;-59
2022/12/26 05:41:47;;;;;;;21.50;8.50;;;;;;;7.70;100.00;99950.40;103040;1306;22471;-58
2022/12/26 05:44:18;;;;;;;19.70;6.80;;;;;;;7.72;100.00;99942.88;103023;1282;22462;-59
2022/12/26 05:46:49;;;;;;;17.90;6.10;;;;;;;7.73;100.00;99935.77;103307;1306;25028;-57
2022/12/26 05:49:21;;;;;;;17.00;6.90;;;;;;;7.73;100.00;99944.65;103071;1281;22459;-58
2022/12/26 05:51:52;;;;;;;23.80;8.20;;;;;;;7.74;100.00;99947.22;102917;1288;22465;-58
2022/12/26 05:54:24;;;;;;;19.70;7.70;;;;;;;7.74;100.00;99955.22;103034;1282;25723;-59
2022/12/26 05:56:56;;;;;;;23.50;7.90;;;;;;;7.76;100.00;99952.77;102949;1306;22473;-57
2022/12/26 05:59:28;;;;;;;21.80;8.30;;;;;;;7.77;100.00;99960.84;103014;1306;22471;-58
2022/12/26 06:02:02;;;;;;;18.20;7.60;;;;;;;7.78;100.00;99962.68;103089;1292;22551;-57
2022/12/26 06:04:35;;;;;;;22.70;8.00;;;;;;;7.79;100.00;99965.55;102937;1306;22461;-59
2022/12/26 06:07:06;;;;;;;23.40;9.70;;;;;;;7.80;100.00;99970.17;102917;1306;25572;-57
2022/12/26 06:09:38;;;;;;;23.30;9.30;;;;;;;7.83;100.00;99969.92;102851;1306;22460;-58
2022/12/26 06:12:09;;;;;;;23.80;10.00;;;;;;;7.84;100.00;99966.27;103184;1306;22863;-61
2022/12/26 06:14:41;;;;;;;22.40;8.30;;;;;;;7.84;100.00;99954.10;103029;1291;22462;-58
2022/12/26 06:17:13;;;;;;;18.90;7.00;;;;;;;7.85;100.00;99952.50;102867;1306;25393;-57
2022/12/26 06:19:44;;;;;;;18.40;7.30;;;;;;;7.85;100.00;99954.33;102918;1306;22474;-60
2022/12/26 06:22:19;;;;;;;14.30;5.20;;;;;;;7.88;100.00;99967.67;102849;1282;22472;-57
2022/12/26 06:24:50;;;;;;;15.30;5.10;;;;;;;7.90;100.00;99971.73;103140;1303;22462;-57
2022/12/26 06:27:21;;;;;;;15.00;5.10;;;;;;;7.92;100.00;99972.34;102955;1306;25397;-57
2022/12/26 06:29:53;;;;;;;15.50;5.10;;;;;;;7.94;100.00;99976.48;103037;1305;24439;-59
2022/12/26 06:32:24;;;;;;;14.70;4.10;;;;;;;7.95;100.00;99966.41;103100;1275;22509;-60
2022/12/26 06:34:56;;;;;;;17.90;5.20;;;;;;;7.96;100.00;99960.87;102918;1302;22592;-60
2022/12/26 06:37:27;;;;;;;12.10;4.40;;;;;;;7.97;100.00;99970.84;102860;1299;23202;-63
2022/12/26 06:39:59;;;;;;;12.60;4.10;;;;;;;7.97;100.00;99981.47;103012;1282;22503;-59
2022/12/26 06:42:30;;;;;;;17.00;5.00;;;;;;;7.97;100.00;99980.52;103099;1282;22462;-58
2022/12/26 06:45:03;;;;;;;13.70;4.10;;;;;;;7.98;100.00;99987.10;102882;1282;22522;-56
2022/12/26 06:47:34;;;;;;;12.40;4.30;;;;;;;7.98;100.00;99999.77;102894;1306;22538;-56
2022/12/26 06:50:07;;;;;;;17.80;4.60;;;;;;;7.99;100.00;99999.90;102891;1282;24280;-58
2022/12/26 06:52:39;;;;;;;12.50;4.20;;;;;;;8.00;100.00;99998.02;102908;1274;22466;-57
2022/12/26 06:55:11;;;;;;;16.20;4.50;;;;;;;8.00;100.00;99985.08;102938;1282;22477;-56
2022/12/26 06:57:42;;;;;;;10.80;3.50;;;;;;;8.01;100.00;99984.45;102998;1306;24270;-55
2022/12/26 07:00:16;;;;;;;16.80;4.80;;;;;;;8.01;100.00;99985.35;103024;1282;25314;-58
2022/12/26 07:02:52;;;;;;;15.40;3.80;;;;;;;8.01;100.00;99986.45;103040;1281;24268;-60
2022/12/26 07:05:23;;;;;;;13.50;4.50;;;;;;;8.01;100.00;99984.91;102916;1280;24350;-59
2022/12/26 07:07:54;;;;;;;15.10;4.30;;;;;;;8.02;100.00;99984.48;102946;1281;22481;-58
2022/12/26 07:10:26;;;;;;;13.20;4.40;;;;;;;8.03;100.00;99998.27;103171;1282;25407;-57
2022/12/26 07:12:57;;;;;;;17.00;5.10;;;;;;;8.02;100.00;99994.34;103053;1306;22533;-58
2022/12/26 07:15:29;;;;;;;17.20;5.20;;;;;;;8.02;100.00;99991.10;103435;1275;22483;-58
2022/12/26 07:18:01;;;;;;;13.80;4.30;;;;;;;8.02;100.00;100004.60;102959;1282;22486;-59
2022/12/26 07:20:33;;;;;;;13.60;5.00;;;;;;;8.03;100.00;99998.59;103015;1282;25320;-57
2022/12/26 07:23:04;;;;;;;14.50;4.00;;;;;;;8.03;100.00;100001.98;102917;1282;24235;-59
2022/12/26 07:25:36;;;;;;;15.50;4.60;;;;;;;8.03;100.00;99999.91;102977;1306;22496;-58
2022/12/26 07:28:07;;;;;;;16.80;5.30;;;;;;;8.04;100.00;100004.65;102938;1306;25305;-60
2022/12/26 07:30:39;;;;;;;12.60;4.00;;;;;;;8.05;100.00;100006.36;102948;1305;22601;-59
2022/12/26 07:33:11;;;;;;;14.00;4.20;;;;;;;8.06;100.00;100009.64;102909;1282;24286;-56
2022/12/26 07:35:42;;;;;;;14.10;4.00;;;;;;;8.08;100.00;99997.02;102939;1306;24369;-55
2022/12/26 07:38:14;;;;;;;12.50;4.40;;;;;;;8.10;100.00;99994.98;102913;1307;22482;-56
2022/12/26 07:40:46;;;;;;;18.80;5.40;;;;;;;8.13;100.00;100007.99;102915;1292;22478;-59
2022/12/26 07:43:18;;;;;;;12.70;3.80;;;;;;;8.15;100.00;100009.92;102928;1282;24450;-57
2022/12/26 07:45:49;;;;;;;14.50;4.50;;;;;;;8.19;100.00;100008.70;102879;1306;22586;-57
2022/12/26 07:48:21;;;;;;;11.70;3.40;;;;;;;8.23;100.00;100000.55;102937;1281;25274;-59
2022/12/26 07:50:52;;;;;;;9.30;2.70;;;;;;;8.25;100.00;99990.41;102935;1288;22470;-56
2022/12/26 07:53:24;;;;;;;10.70;2.40;;;;;;;8.30;100.00;99984.58;102963;1283;25191;-59
2022/12/26 07:55:58;;;;;;;9.30;2.30;;;;;;;8.34;100.00;99994.13;102874;1282;25393;-57
2022/12/26 07:58:30;;;;;;;12.00;3.00;;;;;;;8.38;100.00;99994.58;102903;1306;22488;-59
2022/12/26 08:01:05;;;;;;;12.70;3.30;;;;;;;8.42;99.93;100004.98;103086;1306;22472;-60
2022/12/26 08:03:36;;;;;;;10.40;2.90;;;;;;;8.45;99.93;100009.20;102915;1306;22470;-59
2022/12/26 08:06:09;;;;;;;9.30;3.00;;;;;;;8.48;99.85;100005.70;102988;1283;22483;-58
2022/12/26 08:08:40;;;;;;;13.00;2.80;;;;;;;8.51;99.89;100004.75;103040;1305;22481;-59
2022/12/26 08:11:17;;;;;;;13.80;2.90;;;;;;;8.56;99.77;100005.81;102961;1290;22471;-60
2022/12/26 08:13:50;;;;;;;17.10;3.40;;;;;;;8.59;99.67;100006.67;103015;1296;25350;-61
2022/12/26 08:16:22;;;;;;;11.30;2.80;;;;;;;8.63;99.56;100009.89;103168;1282;23066;-57
2022/12/26 08:18:53;;;;;;;11.20;2.60;;;;;;;8.67;99.45;100012.71;103190;1306;22487;-59
2022/12/26 08:21:25;;;;;;;12.00;3.00;;;;;;;8.71;99.45;100005.46;103048;1288;22678;-57
2022/12/26 08:23:57;;;;;;;11.90;3.80;;;;;;;8.75;99.42;100007.17;102927;1282;25488;-59
2022/12/26 08:26:32;;;;;;;12.20;3.70;;;;;;;8.79;99.13;100014.54;102878;1300;22516;-58
2022/12/26 08:29:04;;;;;;;10.20;2.80;;;;;;;8.82;99.16;100013.10;102997;1306;22520;-57
2022/12/26 08:31:35;;;;;;;17.80;3.50;;;;;;;8.85;99.20;100009.01;102966;1283;22467;-60
2022/12/26 08:34:08;;;;;;;10.40;2.80;;;;;;;8.86;98.82;100017.09;102953;1304;22479;-59
2022/12/26 08:36:40;;;;;;;10.40;3.70;;;;;;;8.89;98.71;100015.70;102962;1298;22468;-59
2022/12/26 08:39:11;;;;;;;15.10;3.10;;;;;;;8.90;98.64;100016.77;103065;1306;26524;-57
2022/12/26 08:41:43;;;;;;;13.90;3.00;;;;;;;8.89;98.37;100014.34;102907;1281;22489;-59
2022/12/26 08:44:16;;;;;;;12.00;3.80;;;;;;;8.89;98.46;100015.39;103058;1289;22459;-59
2022/12/26 08:46:48;;;;;;;12.60;3.50;;;;;;;8.87;98.18;100017.06;103205;1282;22605;-56
2022/12/26 08:49:19;;;;;;;14.20;3.40;;;;;;;8.86;98.15;100010.45;103073;1298;24350;-58
2022/12/26 08:51:51;;;;;;;10.80;2.70;;;;;;;8.85;98.04;100019.48;102931;1282;22607;-60
2022/12/26 08:54:22;;;;;;;10.30;3.30;;;;;;;8.84;98.03;100024.77;103126;1306;22470;-58
2022/12/26 08:56:54;;;;;;;14.10;4.30;;;;;;;8.83;97.81;100027.13;103118;1282;26659;-56
2022/12/26 08:59:25;;;;;;;12.50;3.20;;;;;;;8.81;97.89;100034.73;102915;1281;22603;-59
2022/12/26 09:01:57;;;;;;;14.00;3.00;;;;;;;8.80;98.00;100028.73;102953;1282;22471;-60
2022/12/26 09:04:28;;;;;;;14.10;4.00;;;;;;;8.78;97.87;100024.68;102962;1281;24708;-57
2022/12/26 09:06:59;;;;;;;9.20;2.70;;;;;;;8.76;97.80;100019.80;102928;1291;22465;-60
2022/12/26 09:09:31;;;;;;;14.60;3.70;;;;;;;8.75;97.76;100023.13;103085;1282;22514;-58
2022/12/26 09:12:02;;;;;;;11.90;3.10;;;;;;;8.74;97.79;100029.23;103007;1306;25502;-59
2022/12/26 09:14:34;;;;;;;12.20;4.10;;;;;;;8.74;97.81;100029.66;102943;1280;22500;-60
2022/12/26 09:17:06;;;;;;;10.30;3.30;;;;;;;8.73;97.77;100038.10;102938;1297;22469;-58
2022/12/26 09:19:38;;;;;;;12.10;3.20;;;;;;;8.74;97.83;100039.13;102906;1306;25381;-59
2022/12/26 09:24:59;;;;;;;13.90;3.90;;;;;;;8.78;97.98;100035.66;102897;1298;22472;-56
2022/12/26 09:27:31;;;;;;;11.70;3.10;;;;;;;8.81;98.04;100036.80;103117;1275;22467;-60
2022/12/26 09:30:03;;;;;;;10.70;3.30;;;;;;;8.84;98.05;100047.41;103225;1282;23117;-59
2022/12/26 09:32:35;;;;;;;11.80;4.20;;;;;;;8.87;98.10;100043.54;102948;1280;22671;-59
2022/12/26 09:35:08;;;;;;;13.60;3.50;;;;;;;8.89;98.02;100042.48;102961;1288;22478;-57
2022/12/26 09:37:40;;;;;;;16.20;4.50;;;;;;;8.93;97.93;100054.86;102934;1298;22687;-59
2022/12/26 09:40:24;;;;;;;11.60;4.30;;;;;;;8.98;98.22;100055.58;103106;1297;29523;-57
2022/12/26 09:43:10;;;;;;;14.40;3.80;;;;;;;9.03;98.18;100053.10;103240;1306;22476;-59
2022/12/26 09:45:52;;;;;;;12.00;2.90;;;;;;;9.10;98.27;100049.59;103052;1307;22513;-59
2022/12/26 09:48:32;;;;;;;11.90;3.50;;;;;;;9.16;98.04;100049.49;103009;1282;25312;-59
2022/12/26 09:51:04;;;;;;;10.90;3.40;;;;;;;9.24;98.11;100043.41;102931;1281;24259;-56
2022/12/26 09:53:42;;;;;;;12.90;3.70;;;;;;;9.30;97.95;100042.08;102942;1306;22481;-58
2022/12/26 09:56:17;;;;;;;11.40;3.00;;;;;;;9.34;97.82;100045.81;102879;1306;22507;-58
2022/12/26 09:58:53;;;;;;;9.20;2.70;;;;;;;9.40;97.76;100045.64;102945;1288;25468;-57
2022/12/26 10:01:27;;;;;;;15.20;3.60;;;;;;;9.46;97.70;100041.29;102960;1281;24358;-59
2022/12/26 10:04:01;;;;;;;14.90;3.60;;;;;;;9.53;97.58;100048.41;102987;1292;25406;-59
2022/12/26 10:06:37;;;;;;;10.80;3.20;;;;;;;9.59;97.63;100044.45;103111;1281;22478;-56
2022/12/26 10:09:32;;;;;;;14.70;4.00;;;;;;;9.64;97.45;100045.23;102969;1283;22490;-59
2022/12/26 10:12:23;;;;;;;12.90;3.50;;;;;;;9.70;97.31;100028.99;103187;1281;24267;-58
2022/12/26 10:15:03;;;;;;;10.60;3.00;;;;;;;9.80;97.41;100016.77;102933;1307;26530;-60
2022/12/26 10:17:42;;;;;;;10.70;2.80;;;;;;;9.90;97.61;100012.77;102854;1288;27537;-58
2022/12/26 10:20:28;;;;;;;11.70;3.50;;;;;;;9.98;97.21;100024.04;102965;1283;22461;-59
2022/12/26 10:23:24;;;;;;;12.10;3.30;;;;;;;10.05;96.96;100023.14;103275;1281;23915;-56
2022/12/26 10:26:00;;;;;;;11.00;2.70;;;;;;;10.10;96.70;100018.69;103306;1288;22789;-57
2022/12/26 10:28:38;;;;;;;12.60;3.80;;;;;;;10.17;96.66;100017.70;103224;1306;22547;-58
2022/12/26 10:31:18;;;;;;;13.90;3.90;;;;;;;10.23;96.66;100013.23;103196;1282;23912;-59
2022/12/26 10:33:54;;;;;;;12.40;3.10;;;;;;;10.29;96.70;100011.27;103178;1312;22469;-58
2022/12/26 10:36:32;;;;;;;13.90;4.10;;;;;;;10.38;96.76;100003.09;103060;1280;26353;-58
2022/12/26 10:39:09;;;;;;;12.10;3.90;;;;;;;10.43;96.71;100004.94;102927;1288;22539;-57
2022/12/26 10:41:46;;;;;;;12.50;3.40;;;;;;;10.47;96.41;100008.83;103030;1283;22477;-57
2022/12/26 10:44:19;;;;;;;14.00;3.40;;;;;;;10.50;96.18;100012.41;102957;1310;25149;-57
2022/12/26 10:47:13;;;;;;;9.70;3.40;;;;;;;10.52;96.23;100014.32;102980;1288;23216;-58
2022/12/26 10:49:47;;;;;;;10.90;3.00;;;;;;;10.53;96.08;100003.98;103025;1288;22472;-57
2022/12/26 10:52:27;;;;;;;12.10;3.60;;;;;;;10.53;95.94;100011.23;102957;1285;22486;-56
2022/12/26 10:55:00;;;;;;;12.20;3.20;;;;;;;10.52;95.83;100001.78;102937;1310;22666;-58
2022/12/26 10:57:35;;;;;;;14.20;4.20;;;;;;;10.49;95.68;100000.92;103267;1280;22477;-60
2022/12/26 11:00:18;;;;;;;10.30;3.00;;;;;;;10.45;95.30;100007.27;103100;1288;22485;-58
2022/12/26 11:03:05;;;;;;;13.60;3.50;;;;;;;10.42;95.53;100004.41;102931;1288;22492;-58
2022/12/26 11:05:40;;;;;;;14.80;4.50;;;;;;;10.39;95.57;99993.58;102925;1280;22486;-58
2022/12/26 11:08:20;;;;;;;14.50;4.40;;;;;;;10.36;95.57;99999.15;103187;1282;22470;-58
2022/12/26 11:11:04;;;;;;;11.40;3.70;;;;;;;10.33;95.60;100000.71;103098;1282;22466;-61
2022/12/26 11:13:40;;;;;;;14.10;3.80;;;;;;;10.30;95.53;99994.17;102987;1307;22484;-59
2022/12/26 11:16:12;;;;;;;15.40;4.30;;;;;;;10.27;95.41;99993.88;102968;1282;23900;-57
2022/12/26 11:18:50;;;;;;;12.60;4.10;;;;;;;10.27;95.59;100000.67;103102;1306;22553;-57
2022/12/26 11:21:25;;;;;;;13.80;4.70;;;;;;;10.27;95.45;100006.70;103247;1303;24276;-58
2022/12/26 11:24:18;;;;;;;12.30;3.80;;;;;;;10.27;95.69;100001.19;103138;1288;22476;-59
2022/12/26 11:26:50;;;;;;;13.40;3.80;;;;;;;10.29;95.65;100004.05;103148;1288;22477;-59
2022/12/26 11:29:23;;;;;;;13.20;3.70;;;;;;;10.31;95.51;100001.92;102970;1288;22479;-56
2022/12/26 11:31:57;;;;;;;14.10;4.30;;;;;;;10.34;95.54;99994.20;102958;1284;25353;-59
2022/12/26 11:34:44;;;;;;;15.20;4.50;;;;;;;10.38;95.48;99986.70;103091;1282;22718;-58
2022/12/26 11:37:27;;;;;;;15.60;4.20;;;;;;;10.42;95.59;99991.90;103097;1281;22474;-66
2022/12/26 11:40:00;;;;;;;13.00;4.00;;;;;;;10.50;95.47;99996.42;103154;1282;22433;-60
2022/12/26 11:42:33;;;;;;;12.10;3.70;;;;;;;10.57;95.50;99993.38;102958;1288;22590;-59
2022/12/26 11:45:12;;;;;;;13.30;3.50;;;;;;;10.64;95.49;99992.98;102927;1274;22505;-57
2022/12/26 11:47:48;;;;;;;10.50;2.90;;;;;;;10.71;95.36;99990.69;103294;1280;26217;-56
2022/12/26 11:50:23;;;;;;;12.60;3.80;;;;;;;10.75;95.07;99976.79;103030;1280;22479;-58
2022/12/26 11:53:05;;;;;;;13.00;3.30;;;;;;;10.79;94.87;99967.60;102820;1275;22472;-64
2022/12/26 11:55:38;;;;;;;12.00;3.80;;;;;;;10.85;94.74;99959.86;103074;1282;22605;-59
2022/12/26 11:58:21;;;;;;;14.00;3.80;;;;;;;10.89;94.71;99952.60;103094;1281;23201;-61
2022/12/26 12:01:17;;;;;;;11.70;3.20;;;;;;;10.93;94.57;99949.56;102853;1306;24311;-59
2022/12/26 12:03:50;;;;;;;11.40;3.20;;;;;;;10.94;94.21;99949.48;102959;1306;22474;-58
2022/12/26 12:06:46;;;;;;;9.30;3.00;;;;;;;10.97;94.21;99944.17;103100;1296;22564;-64
2022/12/26 12:09:21;;;;;;;9.20;2.60;;;;;;;10.98;94.09;99941.39;103099;1283;24908;-63
2022/12/26 12:12:01;;;;;;;10.00;3.30;;;;;;;10.99;93.80;99944.98;102984;1282;22615;-63
2022/12/26 12:14:44;;;;;;;12.40;3.50;;;;;;;11.03;94.09;99950.24;104604;1280;22424;-59
2022/12/26 12:17:29;;;;;;;10.90;3.00;;;;;;;11.06;93.86;99957.44;103195;1281;22455;-60
2022/12/26 12:20:32;;;;;;;9.40;2.70;;;;;;;11.07;93.61;99950.76;103402;1281;24407;-59
2022/12/26 12:23:36;;;;;;;13.70;4.00;;;;;;;11.08;93.54;99950.52;103831;1280;25318;-59
2022/12/26 12:26:20;;;;;;;9.70;2.70;;;;;;;11.07;93.33;99957.16;103375;1281;24067;-62
2022/12/26 12:29:32;;;;;;;9.60;2.90;;;;;;;11.06;93.29;99956.54;104029;1281;22506;-59
2022/12/26 12:32:14;;;;;;;8.30;2.40;;;;;;;11.05;93.30;99943.52;103434;1292;23443;-60
2022/12/26 12:35:09;;;;;;;8.30;2.40;;;;;;;11.04;93.32;99941.48;104311;1292;24382;-60
2022/12/26 12:37:59;;;;;;;9.80;2.30;;;;;;;11.04;93.27;99943.66;103337;1280;22860;-60
2022/12/26 12:40:49;;;;;;;11.70;2.60;;;;;;;11.03;93.23;99942.31;103434;1284;25405;-59
2022/12/26 12:43:40;;;;;;;7.70;2.00;;;;;;;11.03;92.87;99947.60;103680;1281;22464;-59
2022/12/26 12:46:33;;;;;;;10.20;2.80;;;;;;;11.03;93.02;99960.45;103763;1284;22569;-60
2022/12/26 12:49:38;;;;;;;9.20;2.20;;;;;;;11.02;92.73;99959.87;103231;1282;22498;-60
2022/12/26 12:52:25;;;;;;;11.70;2.20;;;;;;;11.00;92.32;99964.67;103280;1281;22488;-59
2022/12/26 12:55:33;;;;;;;11.00;3.30;;;;;;;11.00;92.25;99962.09;103700;1283;22733;-61
2022/12/26 12:58:14;;;;;;;12.50;3.00;;;;;;;10.99;91.81;99948.16;103353;1282;26488;-59
2022/12/26 13:00:55;;;;;;;11.40;3.20;;;;;;;11.00;91.77;99943.95;103029;1306;24311;-61
2022/12/26 13:03:41;;;;;;;10.40;2.60;;;;;;;11.00;91.72;99935.13;103321;1274;22472;-61
2022/12/26 13:06:40;;;;;;;10.90;2.30;;;;;;;10.99;91.66;99936.98;103551;1281;22477;-64
2022/12/26 13:09:25;;;;;;;7.10;1.80;;;;;;;10.98;91.52;99943.98;103088;1281;24366;-63
2022/12/26 13:12:04;;;;;;;12.70;2.60;;;;;;;10.97;91.50;99953.27;103168;1281;24828;-61
2022/12/26 13:14:41;;;;;;;7.80;2.00;;;;;;;10.96;91.15;99956.01;103291;1291;22665;-63
2022/12/26 13:17:30;;;;;;;11.30;3.30;;;;;;;10.95;91.05;99956.73;103181;1282;25297;-62
2022/12/26 13:20:20;;;;;;;12.30;2.80;;;;;;;10.94;91.29;99950.80;103267;1282;25774;-59
2022/12/26 13:25:49;;;;;;;16.00;3.80;;;;;;;10.94;90.86;99945.30;103151;1280;22535;-63
2022/12/26 13:28:30;;;;;;;11.30;3.00;;;;;;;10.95;90.90;99942.58;103119;1281;25685;-64
2022/12/26 13:31:02;;;;;;;11.40;3.10;;;;;;;10.96;90.89;99950.91;103080;1292;23917;-63
2022/12/26 13:33:39;;;;;;;13.00;3.70;;;;;;;10.96;91.01;99952.14;103103;1291;22493;-61
2022/12/26 13:36:32;;;;;;;15.20;4.40;;;;;;;10.95;91.00;99954.45;102921;1280;24822;-62
2022/12/26 13:39:38;;;;;;;14.70;3.70;;;;;;;10.95;90.95;99959.73;103090;1306;22462;-62
2022/12/26 13:45:58;;;;;;;10.10;2.80;;;;;;;10.93;90.27;99972.86;103112;1281;22480;-63
2022/12/26 13:48:55;;;;;;;;;;;;;;;10.93;90.32;99972.21;103205;1274;24453;-63
2022/12/26 13:51:51;;;;;;;9.40;2.30;;;;;;;10.93;90.46;99967.18;103227;1288;25152;-63
2022/12/26 13:54:25;;;;;;;11.30;3.10;;;;;;;10.92;90.39;99966.36;102737;1288;25420;-66
2022/12/26 13:57:24;;;;;;;15.40;4.20;;;;;;;10.91;90.37;99965.88;102848;1281;22478;-65
2022/12/26 14:00:21;;;;;;;11.10;2.70;;;;;;;10.90;90.24;99965.58;102939;1288;25311;-64
2022/12/26 14:03:32;;;;;;;10.20;2.40;;;;;;;10.89;90.15;99967.17;103154;1287;23314;-64
2022/12/26 14:06:46;;;;;;;11.90;2.70;;;;;;;10.88;90.37;99963.36;103159;1288;24269;-65
2022/12/26 14:09:39;;;;;;;17.50;6.70;;;;;;;10.86;90.07;99963.64;103084;1284;22542;-61
2022/12/26 14:12:43;;;;;;;30.80;15.90;;;;;;;10.84;89.84;99965.64;102528;1288;22489;-63